Terminal Aerodrome Forecast
Issued by NWS

Home | Current Version | Previous Version | Text Only | Print | Product List | Glossary On
Versions: 1 2 3 4 5 6 7 8 9 10 11 12 13 14 15 16
000
FTUS45 KVEF 311700
TAFVGT
TAF
KVGT 311736Z 3118/0118 05006KT P6SM FEW110 FEW250
     FM312300 28011KT P6SM SCT110 SCT250
     FM010600 01012KT P6SM SCT150 SCT250
     FM011200 VRB05KT P6SM SCT250=

USA.gov is the U.S. government's official web portal to all federal, state and local government web resources and services.